sensor_id;sensor_type;location;lat;lon;timestamp;pressure;altitude;pressure_sealevel;temperature
77728;BMP280;68312;53.502;10.030;2023-04-06T00:01:41;102291.19;;;0.52
77728;BMP280;68312;53.502;10.030;2023-04-06T00:04:07;102284.84;;;0.48
77728;BMP280;68312;53.502;10.030;2023-04-06T00:06:33;102291.22;;;0.45
77728;BMP280;68312;53.502;10.030;2023-04-06T00:08:59;102284.25;;;0.46
77728;BMP280;68312;53.502;10.030;2023-04-06T00:11:26;102287.25;;;0.43
77728;BMP280;68312;53.502;10.030;2023-04-06T00:13:52;102284.06;;;0.41
77728;BMP280;68312;53.502;10.030;2023-04-06T00:16:18;102283.50;;;0.39
77728;BMP280;68312;53.502;10.030;2023-04-06T00:18:44;102285.28;;;0.38
77728;BMP280;68312;53.502;10.030;2023-04-06T00:21:13;102277.31;;;0.40
77728;BMP280;68312;53.502;10.030;2023-04-06T00:23:40;102274.13;;;0.44
77728;BMP280;68312;53.502;10.030;2023-04-06T00:26:06;102281.28;;;0.49
77728;BMP280;68312;53.502;10.030;2023-04-06T00:28:33;102281.28;;;0.49
77728;BMP280;68312;53.502;10.030;2023-04-06T00:30:59;102272.53;;;0.50
77728;BMP280;68312;53.502;10.030;2023-04-06T00:33:25;102272.53;;;0.43
77728;BMP280;68312;53.502;10.030;2023-04-06T00:35:50;102276.72;;;0.38
77728;BMP280;68312;53.502;10.030;2023-04-06T00:38:16;102269.81;;;0.32
77728;BMP280;68312;53.502;10.030;2023-04-06T00:40:42;102269.63;;;0.27
77728;BMP280;68312;53.502;10.030;2023-04-06T00:43:12;102268.06;;;0.26
77728;BMP280;68312;53.502;10.030;2023-04-06T00:45:41;102268.66;;;0.28
77728;BMP280;68312;53.502;10.030;2023-04-06T00:48:08;102263.47;;;0.28
77728;BMP280;68312;53.502;10.030;2023-04-06T00:50:34;102261.28;;;0.25
77728;BMP280;68312;53.502;10.030;2023-04-06T00:53:00;102261.91;;;0.21
77728;BMP280;68312;53.502;10.030;2023-04-06T00:55:27;102262.72;;;0.15
77728;BMP280;68312;53.502;10.030;2023-04-06T00:57:54;102261.75;;;0.09
77728;BMP280;68312;53.502;10.030;2023-04-06T01:00:23;102259.56;;;0.06
77728;BMP280;68312;53.502;10.030;2023-04-06T01:02:49;102256.00;;;0.01
77728;BMP280;68312;53.502;10.030;2023-04-06T01:05:14;102254.81;;;-0.03
77728;BMP280;68312;53.502;10.030;2023-04-06T01:07:40;102257.81;;;-0.06
77728;BMP280;68312;53.502;10.030;2023-04-06T01:10:06;102251.25;;;-0.08
77728;BMP280;68312;53.502;10.030;2023-04-06T01:12:32;102251.63;;;-0.05
77728;BMP280;68312;53.502;10.030;2023-04-06T01:14:57;102257.41;;;-0.09
77728;BMP280;68312;53.502;10.030;2023-04-06T01:17:23;102251.03;;;-0.13
77728;BMP280;68312;53.502;10.030;2023-04-06T01:19:48;102248.88;;;-0.16
77728;BMP280;68312;53.502;10.030;2023-04-06T01:22:16;102241.31;;;-0.18
77728;BMP280;68312;53.502;10.030;2023-04-06T01:24:43;102253.63;;;-0.13
77728;BMP280;68312;53.502;10.030;2023-04-06T01:27:09;102242.72;;;-0.15
77728;BMP280;68312;53.502;10.030;2023-04-06T01:29:34;102240.34;;;-0.17
77728;BMP280;68312;53.502;10.030;2023-04-06T01:32:00;102240.53;;;-0.18
77728;BMP280;68312;53.502;10.030;2023-04-06T01:34:26;102238.34;;;-0.21
77728;BMP280;68312;53.502;10.030;2023-04-06T01:36:51;102235.97;;;-0.23
77728;BMP280;68312;53.502;10.030;2023-04-06T01:39:17;102238.75;;;-0.24
77728;BMP280;68312;53.502;10.030;2023-04-06T01:41:42;102235.56;;;-0.26
77728;BMP280;68312;53.502;10.030;2023-04-06T01:44:08;102240.16;;;-0.28
77728;BMP280;68312;53.502;10.030;2023-04-06T01:46:33;102235.41;;;-0.31
77728;BMP280;68312;53.502;10.030;2023-04-06T01:48:59;102232.81;;;-0.31
77728;BMP280;68312;53.502;10.030;2023-04-06T01:51:25;102239.34;;;-0.29
77728;BMP280;68312;53.502;10.030;2023-04-06T01:53:51;102232.63;;;-0.23
77728;BMP280;68312;53.502;10.030;2023-04-06T01:56:16;102238.56;;;-0.29
77728;BMP280;68312;53.502;10.030;2023-04-06T01:58:42;102236.56;;;-0.34
77728;BMP280;68312;53.502;10.030;2023-04-06T02:01:07;102233.56;;;-0.37
77728;BMP280;68312;53.502;10.030;2023-04-06T02:03:33;102226.44;;;-0.35
77728;BMP280;68312;53.502;10.030;2023-04-06T02:05:58;102226.84;;;-0.38
77728;BMP280;68312;53.502;10.030;2023-04-06T02:08:24;102228.22;;;-0.42
77728;BMP280;68312;53.502;10.030;2023-04-06T02:10:50;102223.66;;;-0.46
77728;BMP280;68312;53.502;10.030;2023-04-06T02:13:15;102221.47;;;-0.49
77728;BMP280;68312;53.502;10.030;2023-04-06T02:15:41;102221.88;;;-0.52
77728;BMP280;68312;53.502;10.030;2023-04-06T02:18:06;102222.06;;;-0.54
77728;BMP280;68312;53.502;10.030;2023-04-06T02:20:32;102216.13;;;-0.54
77728;BMP280;68312;53.502;10.030;2023-04-06T02:22:58;102224.06;;;-0.56
77728;BMP280;68312;53.502;10.030;2023-04-06T02:25:25;102216.72;;;-0.59
77728;BMP280;68312;53.502;10.030;2023-04-06T02:27:51;102213.13;;;-0.58
77728;BMP280;68312;53.502;10.030;2023-04-06T02:30:16;102212.53;;;-0.53
77728;BMP280;68312;53.502;10.030;2023-04-06T02:32:42;102217.91;;;-0.55
77728;BMP280;68312;53.502;10.030;2023-04-06T02:35:08;102211.34;;;-0.57
77728;BMP280;68312;53.502;10.030;2023-04-06T02:37:33;102212.16;;;-0.57
77728;BMP280;68312;53.502;10.030;2023-04-06T02:39:59;102216.31;;;-0.56
77728;BMP280;68312;53.502;10.030;2023-04-06T02:42:24;102212.94;;;-0.56
77728;BMP280;68312;53.502;10.030;2023-04-06T02:44:50;102213.56;;;-0.61
77728;BMP280;68312;53.502;10.030;2023-04-06T02:47:15;102220.88;;;-0.64
77728;BMP280;68312;53.502;10.030;2023-04-06T02:49:41;102217.09;;;-0.68
77728;BMP280;68312;53.502;10.030;2023-04-06T02:52:06;102216.72;;;-0.71
77728;BMP280;68312;53.502;10.030;2023-04-06T02:54:32;102216.91;;;-0.73
77728;BMP280;68312;53.502;10.030;2023-04-06T02:56:57;102219.09;;;-0.76
77728;BMP280;68312;53.502;10.030;2023-04-06T02:59:23;102218.69;;;-0.80
77728;BMP280;68312;53.502;10.030;2023-04-06T03:01:48;102223.03;;;-0.80
77728;BMP280;68312;53.502;10.030;2023-04-06T03:04:14;102219.91;;;-0.82
77728;BMP280;68312;53.502;10.030;2023-04-06T03:06:39;102220.09;;;-0.84
77728;BMP280;68312;53.502;10.030;2023-04-06T03:09:06;102219.88;;;-0.89
77728;BMP280;68312;53.502;10.030;2023-04-06T03:11:31;102223.03;;;-0.87
77728;BMP280;68312;53.502;10.030;2023-04-06T03:13:57;102220.69;;;-0.88
77728;BMP280;68312;53.502;10.030;2023-04-06T03:16:22;102221.47;;;-0.81
77728;BMP280;68312;53.502;10.030;2023-04-06T03:18:48;102215.31;;;-0.80
77728;BMP280;68312;53.502;10.030;2023-04-06T03:21:14;102223.44;;;-0.77
77728;BMP280;68312;53.502;10.030;2023-04-06T03:23:42;102214.53;;;-0.81
77728;BMP280;68312;53.502;10.030;2023-04-06T03:26:08;102219.50;;;-0.79
77728;BMP280;68312;53.502;10.030;2023-04-06T03:28:33;102211.56;;;-0.78
77728;BMP280;68312;53.502;10.030;2023-04-06T03:30:59;102221.66;;;-0.76
77728;BMP280;68312;53.502;10.030;2023-04-06T03:33:25;102213.31;;;-0.78
77728;BMP280;68312;53.502;10.030;2023-04-06T03:35:54;102220.69;;;-0.82
77728;BMP280;68312;53.502;10.030;2023-04-06T03:38:20;102216.72;;;-0.84
77728;BMP280;68312;53.502;10.030;2023-04-06T03:40:45;102213.13;;;-0.83
77728;BMP280;68312;53.502;10.030;2023-04-06T03:43:11;102217.69;;;-0.85
77728;BMP280;68312;53.502;10.030;2023-04-06T03:45:37;102225.03;;;-0.89
77728;BMP280;68312;53.502;10.030;2023-04-06T03:48:04;102219.66;;;-0.94
77728;BMP280;68312;53.502;10.030;2023-04-06T03:50:30;102221.88;;;-0.97
77728;BMP280;68312;53.502;10.030;2023-04-06T03:52:55;102232.97;;;-0.97
77728;BMP280;68312;53.502;10.030;2023-04-06T03:55:21;102218.69;;;-0.99
77728;BMP280;68312;53.502;10.030;2023-04-06T03:57:47;102222.66;;;-1.03
77728;BMP280;68312;53.502;10.030;2023-04-06T04:00:12;102221.44;;;-1.01
77728;BMP280;68312;53.502;10.030;2023-04-06T04:02:38;102231.56;;;-0.99
77728;BMP280;68312;53.502;10.030;2023-04-06T04:05:04;102230.97;;;-1.01
77728;BMP280;68312;53.502;10.030;2023-04-06T04:07:30;102226.97;;;-1.04
77728;BMP280;68312;53.502;10.030;2023-04-06T04:09:56;102228.59;;;-1.03
77728;BMP280;68312;53.502;10.030;2023-04-06T04:12:21;102227.38;;;-1.00
77728;BMP280;68312;53.502;10.030;2023-04-06T04:14:47;102228.41;;;-1.01
77728;BMP280;68312;53.502;10.030;2023-04-06T04:17:12;102233.94;;;-1.04
77728;BMP280;68312;53.502;10.030;2023-04-06T04:19:38;102230.56;;;-1.05
77728;BMP280;68312;53.502;10.030;2023-04-06T04:22:03;102241.66;;;-1.04
77728;BMP280;68312;53.502;10.030;2023-04-06T04:24:32;102241.06;;;-1.06
77728;BMP280;68312;53.502;10.030;2023-04-06T04:26:59;102242.25;;;-1.08
77728;BMP280;68312;53.502;10.030;2023-04-06T04:29:25;102244.44;;;-1.05
77728;BMP280;68312;53.502;10.030;2023-04-06T04:31:51;102234.72;;;-1.04
77728;BMP280;68312;53.502;10.030;2023-04-06T04:34:18;102245.88;;;-0.90
77728;BMP280;68312;53.502;10.030;2023-04-06T04:36:46;102238.50;;;-0.87
77728;BMP280;68312;53.502;10.030;2023-04-06T04:39:11;102244.47;;;-0.86
77728;BMP280;68312;53.502;10.030;2023-04-06T04:41:37;102242.28;;;-0.89
77728;BMP280;68312;53.502;10.030;2023-04-06T04:44:02;102249.63;;;-0.93
77728;BMP280;68312;53.502;10.030;2023-04-06T04:46:28;102244.47;;;-0.99
77728;BMP280;68312;53.502;10.030;2023-04-06T04:48:53;102239.88;;;-1.04
77728;BMP280;68312;53.502;10.030;2023-04-06T04:51:19;102241.47;;;-1.09
77728;BMP280;68312;53.502;10.030;2023-04-06T04:53:45;102247.22;;;-1.07
77728;BMP280;68312;53.502;10.030;2023-04-06T04:56:10;102241.28;;;-1.07
77728;BMP280;68312;53.502;10.030;2023-04-06T04:58:36;102243.03;;;-1.08
77728;BMP280;68312;53.502;10.030;2023-04-06T05:01:01;102241.47;;;-1.09
77728;BMP280;68312;53.502;10.030;2023-04-06T05:03:27;102240.09;;;-1.05
77728;BMP280;68312;53.502;10.030;2023-04-06T05:05:52;102242.25;;;-1.02
77728;BMP280;68312;53.502;10.030;2023-04-06T05:08:18;102246.84;;;-0.91
77728;BMP280;68312;53.502;10.030;2023-04-06T05:10:44;102251.03;;;-0.90
77728;BMP280;68312;53.502;10.030;2023-04-06T05:13:10;102244.06;;;-0.90
77728;BMP280;68312;53.502;10.030;2023-04-06T05:15:36;102243.06;;;-0.89
77728;BMP280;68312;53.502;10.030;2023-04-06T05:18:06;102250.00;;;-0.89
77728;BMP280;68312;53.502;10.030;2023-04-06T05:20:33;102240.53;;;-0.82
77728;BMP280;68312;53.502;10.030;2023-04-06T05:23:00;102236.16;;;-0.75
77728;BMP280;68312;53.502;10.030;2023-04-06T05:25:26;102240.53;;;-0.63
77728;BMP280;68312;53.502;10.030;2023-04-06T05:27:52;102246.47;;;-0.50
77728;BMP280;68312;53.502;10.030;2023-04-06T05:30:18;102246.28;;;-0.42
77728;BMP280;68312;53.502;10.030;2023-04-06T05:32:44;102243.91;;;-0.37
77728;BMP280;68312;53.502;10.030;2023-04-06T05:35:10;102252.66;;;-0.38
77728;BMP280;68312;53.502;10.030;2023-04-06T05:37:37;102247.69;;;-0.39
77728;BMP280;68312;53.502;10.030;2023-04-06T05:40:03;102244.31;;;-0.40
77728;BMP280;68312;53.502;10.030;2023-04-06T05:42:36;102239.75;;;-0.32
77728;BMP280;68312;53.502;10.030;2023-04-06T05:45:08;102240.13;;;-0.22
77728;BMP280;68312;53.502;10.030;2023-04-06T05:47:36;102236.75;;;-0.09
77728;BMP280;68312;53.502;10.030;2023-04-06T05:50:02;102236.53;;;0.05
77728;BMP280;68312;53.502;10.030;2023-04-06T05:52:28;102243.66;;;0.16
77728;BMP280;68312;53.502;10.030;2023-04-06T05:54:54;102244.38;;;0.29
77728;BMP280;68312;53.502;10.030;2023-04-06T05:57:19;102240.75;;;0.43
77728;BMP280;68312;53.502;10.030;2023-04-06T05:59:45;102234.13;;;0.60
77728;BMP280;68312;53.502;10.030;2023-04-06T06:02:10;102233.63;;;0.75
77728;BMP280;68312;53.502;10.030;2023-04-06T06:04:36;102238.31;;;0.91
77728;BMP280;68312;53.502;10.030;2023-04-06T06:07:01;102247.19;;;1.08
77728;BMP280;68312;53.502;10.030;2023-04-06T06:09:27;102230.19;;;1.18
77728;BMP280;68312;53.502;10.030;2023-04-06T06:11:53;102240.19;;;1.33
77728;BMP280;68312;53.502;10.030;2023-04-06T06:14:18;102235.50;;;1.47
77728;BMP280;68312;53.502;10.030;2023-04-06T06:16:45;102232.00;;;1.60
77728;BMP280;68312;53.502;10.030;2023-04-06T06:19:10;102238.88;;;1.72
77728;BMP280;68312;53.502;10.030;2023-04-06T06:21:36;102235.00;;;1.81
77728;BMP280;68312;53.502;10.030;2023-04-06T06:24:01;102238.78;;;1.96
77728;BMP280;68312;53.502;10.030;2023-04-06T06:26:27;102236.22;;;2.14
77728;BMP280;68312;53.502;10.030;2023-04-06T06:28:53;102230.88;;;2.27
77728;BMP280;68312;53.502;10.030;2023-04-06T06:31:18;102226.88;;;2.42
77728;BMP280;68312;53.502;10.030;2023-04-06T06:33:47;102220.44;;;2.62
77728;BMP280;68312;53.502;10.030;2023-04-06T06:36:16;102227.16;;;2.81
77728;BMP280;68312;53.502;10.030;2023-04-06T06:38:43;102233.03;;;2.99
77728;BMP280;68312;53.502;10.030;2023-04-06T06:41:10;102222.47;;;3.12
77728;BMP280;68312;53.502;10.030;2023-04-06T06:43:36;102234.13;;;3.32
77728;BMP280;68312;53.502;10.030;2023-04-06T06:46:02;102229.81;;;3.49
77728;BMP280;68312;53.502;10.030;2023-04-06T06:48:29;102222.81;;;3.61
77728;BMP280;68312;53.502;10.030;2023-04-06T06:50:54;102227.88;;;3.78
77728;BMP280;68312;53.502;10.030;2023-04-06T06:53:20;102226.34;;;3.94
77728;BMP280;68312;53.502;10.030;2023-04-06T06:55:46;102218.50;;;4.05
77728;BMP280;68312;53.502;10.030;2023-04-06T06:58:11;102221.53;;;4.13
77728;BMP280;68312;53.502;10.030;2023-04-06T07:00:37;102228.22;;;4.21
77728;BMP280;68312;53.502;10.030;2023-04-06T07:03:02;102221.69;;;4.34
77728;BMP280;68312;53.502;10.030;2023-04-06T07:05:28;102223.78;;;4.49
77728;BMP280;68312;53.502;10.030;2023-04-06T07:07:54;102214.97;;;4.66
77728;BMP280;68312;53.502;10.030;2023-04-06T07:10:20;102219.03;;;4.73
77728;BMP280;68312;53.502;10.030;2023-04-06T07:12:46;102221.53;;;4.85
77728;BMP280;68312;53.502;10.030;2023-04-06T07:15:12;102209.72;;;4.94
77728;BMP280;68312;53.502;10.030;2023-04-06T07:17:37;102217.19;;;5.06
77728;BMP280;68312;53.502;10.030;2023-04-06T07:20:03;102214.97;;;5.15
77728;BMP280;68312;53.502;10.030;2023-04-06T07:22:29;102208.09;;;5.25
77728;BMP280;68312;53.502;10.030;2023-04-06T07:24:55;102214.31;;;5.40
77728;BMP280;68312;53.502;10.030;2023-04-06T07:27:21;102207.16;;;5.52
77728;BMP280;68312;53.502;10.030;2023-04-06T07:29:46;102209.41;;;5.65
77728;BMP280;68312;53.502;10.030;2023-04-06T07:32:12;102207.47;;;5.77
77728;BMP280;68312;53.502;10.030;2023-04-06T07:34:37;102206.88;;;5.91
77728;BMP280;68312;53.502;10.030;2023-04-06T07:37:03;102200.53;;;6.08
77728;BMP280;68312;53.502;10.030;2023-04-06T07:39:28;102211.78;;;6.40
77728;BMP280;68312;53.502;10.030;2023-04-06T07:41:54;102207.25;;;6.56
77728;BMP280;68312;53.502;10.030;2023-04-06T07:44:20;102201.94;;;6.78
77728;BMP280;68312;53.502;10.030;2023-04-06T07:46:45;102191.81;;;6.86
77728;BMP280;68312;53.502;10.030;2023-04-06T07:49:11;102189.63;;;7.14
77728;BMP280;68312;53.502;10.030;2023-04-06T07:51:38;102183.78;;;7.43
77728;BMP280;68312;53.502;10.030;2023-04-06T07:54:05;102188.63;;;8.00
77728;BMP280;68312;53.502;10.030;2023-04-06T07:56:30;102175.84;;;8.53
77728;BMP280;68312;53.502;10.030;2023-04-06T07:58:56;102175.56;;;8.54
77728;BMP280;68312;53.502;10.030;2023-04-06T08:01:23;102182.31;;;8.95
77728;BMP280;68312;53.502;10.030;2023-04-06T08:03:49;102175.03;;;9.44
77728;BMP280;68312;53.502;10.030;2023-04-06T08:06:15;102181.44;;;9.71
77728;BMP280;68312;53.502;10.030;2023-04-06T08:08:42;102174.13;;;9.63
77728;BMP280;68312;53.502;10.030;2023-04-06T08:11:08;102181.06;;;9.45
77728;BMP280;68312;53.502;10.030;2023-04-06T08:13:34;102180.44;;;9.57
77728;BMP280;68312;53.502;10.030;2023-04-06T08:16:01;102179.50;;;9.39
77728;BMP280;68312;53.502;10.030;2023-04-06T08:18:27;102180.22;;;9.49
77728;BMP280;68312;53.502;10.030;2023-04-06T08:20:54;102182.97;;;9.72
77728;BMP280;68312;53.502;10.030;2023-04-06T08:23:20;102175.16;;;9.67
77728;BMP280;68312;53.502;10.030;2023-04-06T08:25:45;102177.16;;;9.80
77728;BMP280;68312;53.502;10.030;2023-04-06T08:28:11;102172.22;;;10.12
77728;BMP280;68312;53.502;10.030;2023-04-06T08:30:39;102160.63;;;10.17
77728;BMP280;68312;53.502;10.030;2023-04-06T08:33:06;102156.09;;;9.95
77728;BMP280;68312;53.502;10.030;2023-04-06T08:35:32;102166.78;;;10.31
77728;BMP280;68312;53.502;10.030;2023-04-06T08:37:57;102158.13;;;10.36
77728;BMP280;68312;53.502;10.030;2023-04-06T08:40:23;102151.31;;;10.58
77728;BMP280;68312;53.502;10.030;2023-04-06T08:42:56;102154.69;;;11.04
77728;BMP280;68312;53.502;10.030;2023-04-06T08:45:27;102149.56;;;11.13
77728;BMP280;68312;53.502;10.030;2023-04-06T08:47:54;102143.66;;;11.44
77728;BMP280;68312;53.502;10.030;2023-04-06T08:50:21;102148.59;;;11.82
77728;BMP280;68312;53.502;10.030;2023-04-06T08:52:49;102149.72;;;11.94
77728;BMP280;68312;53.502;10.030;2023-04-06T08:55:15;102151.34;;;12.35
77728;BMP280;68312;53.502;10.030;2023-04-06T08:57:41;102137.41;;;12.47
77728;BMP280;68312;53.502;10.030;2023-04-06T09:00:10;102138.75;;;12.45
77728;BMP280;68312;53.502;10.030;2023-04-06T09:02:43;102139.38;;;12.42
77728;BMP280;68312;53.502;10.030;2023-04-06T09:05:11;102133.78;;;12.70
77728;BMP280;68312;53.502;10.030;2023-04-06T09:07:38;102138.94;;;12.88
77728;BMP280;68312;53.502;10.030;2023-04-06T09:10:05;102136.19;;;13.28
77728;BMP280;68312;53.502;10.030;2023-04-06T09:12:32;102129.63;;;13.26
77728;BMP280;68312;53.502;10.030;2023-04-06T09:14:59;102133.22;;;13.43
77728;BMP280;68312;53.502;10.030;2023-04-06T09:17:28;102129.94;;;13.89
77728;BMP280;68312;53.502;10.030;2023-04-06T09:20:00;102129.72;;;14.45
77728;BMP280;68312;53.502;10.030;2023-04-06T09:22:36;102119.22;;;14.96
77728;BMP280;68312;53.502;10.030;2023-04-06T09:25:03;102117.75;;;16.59
77728;BMP280;68312;53.502;10.030;2023-04-06T09:27:31;102106.75;;;16.68
77728;BMP280;68312;53.502;10.030;2023-04-06T09:30:09;102105.66;;;17.21
77728;BMP280;68312;53.502;10.030;2023-04-06T09:32:49;102109.44;;;17.88
77728;BMP280;68312;53.502;10.030;2023-04-06T09:35:18;102095.38;;;17.20
77728;BMP280;68312;53.502;10.030;2023-04-06T09:37:50;102094.16;;;17.29
77728;BMP280;68312;53.502;10.030;2023-04-06T09:40:18;102099.84;;;17.40
77728;BMP280;68312;53.502;10.030;2023-04-06T09:42:46;102098.97;;;16.84
77728;BMP280;68312;53.502;10.030;2023-04-06T09:45:13;102092.78;;;17.43
77728;BMP280;68312;53.502;10.030;2023-04-06T09:47:43;102082.44;;;16.46
77728;BMP280;68312;53.502;10.030;2023-04-06T09:50:11;102090.66;;;17.05
77728;BMP280;68312;53.502;10.030;2023-04-06T09:52:42;102074.22;;;17.12
77728;BMP280;68312;53.502;10.030;2023-04-06T09:55:20;102092.72;;;16.19
77728;BMP280;68312;53.502;10.030;2023-04-06T09:58:07;102080.47;;;17.39
77728;BMP280;68312;53.502;10.030;2023-04-06T10:00:47;102074.63;;;16.82
77728;BMP280;68312;53.502;10.030;2023-04-06T10:03:53;102075.22;;;16.67
77728;BMP280;68312;53.502;10.030;2023-04-06T10:06:33;102076.19;;;17.14
77728;BMP280;68312;53.502;10.030;2023-04-06T10:09:02;102077.50;;;17.52
77728;BMP280;68312;53.502;10.030;2023-04-06T10:11:33;102073.06;;;17.33
77728;BMP280;68312;53.502;10.030;2023-04-06T10:14:00;102070.84;;;17.46
77728;BMP280;68312;53.502;10.030;2023-04-06T10:16:26;102073.00;;;17.09
77728;BMP280;68312;53.502;10.030;2023-04-06T10:18:58;102061.34;;;17.02
77728;BMP280;68312;53.502;10.030;2023-04-06T10:21:32;102073.06;;;17.44
77728;BMP280;68312;53.502;10.030;2023-04-06T10:24:02;102068.91;;;17.79
77728;BMP280;68312;53.502;10.030;2023-04-06T10:26:35;102066.75;;;18.08
77728;BMP280;68312;53.502;10.030;2023-04-06T10:29:04;102072.31;;;17.67
77728;BMP280;68312;53.502;10.030;2023-04-06T10:31:31;102068.66;;;17.72
77728;BMP280;68312;53.502;10.030;2023-04-06T10:34:01;102068.44;;;17.77
77728;BMP280;68312;53.502;10.030;2023-04-06T10:36:34;102068.31;;;17.06
77728;BMP280;68312;53.502;10.030;2023-04-06T10:39:01;102067.69;;;17.09
77728;BMP280;68312;53.502;10.030;2023-04-06T10:41:33;102067.84;;;16.72
77728;BMP280;68312;53.502;10.030;2023-04-06T10:44:07;102068.00;;;17.51
77728;BMP280;68312;53.502;10.030;2023-04-06T10:46:33;102057.69;;;17.85
77728;BMP280;68312;53.502;10.030;2023-04-06T10:49:17;102053.16;;;17.74
77728;BMP280;68312;53.502;10.030;2023-04-06T10:51:42;102053.59;;;17.99
77728;BMP280;68312;53.502;10.030;2023-04-06T10:54:09;102052.09;;;18.25
77728;BMP280;68312;53.502;10.030;2023-04-06T10:56:37;102042.34;;;18.29
77728;BMP280;68312;53.502;10.030;2023-04-06T10:59:05;102043.78;;;18.15
77728;BMP280;68312;53.502;10.030;2023-04-06T11:01:32;102042.84;;;17.84
77728;BMP280;68312;53.502;10.030;2023-04-06T11:03:57;102043.38;;;18.13
77728;BMP280;68312;53.502;10.030;2023-04-06T11:06:25;102037.72;;;18.53
77728;BMP280;68312;53.502;10.030;2023-04-06T11:08:54;102040.31;;;17.99
77728;BMP280;68312;53.502;10.030;2023-04-06T11:11:22;102026.56;;;17.74
77728;BMP280;68312;53.502;10.030;2023-04-06T11:16:23;102020.47;;;18.36
77728;BMP280;68312;53.502;10.030;2023-04-06T11:18:58;102024.94;;;18.59
77728;BMP280;68312;53.502;10.030;2023-04-06T11:21:41;102021.91;;;18.33
77728;BMP280;68312;53.502;10.030;2023-04-06T11:24:16;102019.13;;;18.15
77728;BMP280;68312;53.502;10.030;2023-04-06T11:26:56;102024.59;;;17.83
77728;BMP280;68312;53.502;10.030;2023-04-06T11:29:27;102007.50;;;17.72
77728;BMP280;68312;53.502;10.030;2023-04-06T11:31:59;102018.34;;;18.02
77728;BMP280;68312;53.502;10.030;2023-04-06T11:34:28;102028.34;;;18.59
77728;BMP280;68312;53.502;10.030;2023-04-06T11:36:58;102010.78;;;18.70
77728;BMP280;68312;53.502;10.030;2023-04-06T11:39:28;102011.97;;;18.57
77728;BMP280;68312;53.502;10.030;2023-04-06T11:41:58;102017.59;;;18.68
77728;BMP280;68312;53.502;10.030;2023-04-06T11:44:35;102013.72;;;18.26
77728;BMP280;68312;53.502;10.030;2023-04-06T11:47:06;102003.81;;;18.50
77728;BMP280;68312;53.502;10.030;2023-04-06T11:49:37;102005.91;;;18.72
77728;BMP280;68312;53.502;10.030;2023-04-06T11:52:18;102001.00;;;18.74
77728;BMP280;68312;53.502;10.030;2023-04-06T11:54:53;102000.41;;;18.65
77728;BMP280;68312;53.502;10.030;2023-04-06T11:57:22;102007.59;;;18.38
77728;BMP280;68312;53.502;10.030;2023-04-06T11:59:50;102006.16;;;18.01
77728;BMP280;68312;53.502;10.030;2023-04-06T12:02:17;101999.66;;;18.26
77728;BMP280;68312;53.502;10.030;2023-04-06T12:04:43;101998.13;;;19.09
77728;BMP280;68312;53.502;10.030;2023-04-06T12:07:09;101993.03;;;19.04
77728;BMP280;68312;53.502;10.030;2023-04-06T12:09:35;101993.88;;;19.54
77728;BMP280;68312;53.502;10.030;2023-04-06T12:12:02;101988.00;;;19.49
77728;BMP280;68312;53.502;10.030;2023-04-06T12:14:28;101981.84;;;19.45
77728;BMP280;68312;53.502;10.030;2023-04-06T12:16:55;101984.09;;;19.12
77728;BMP280;68312;53.502;10.030;2023-04-06T12:19:22;101970.78;;;19.27
77728;BMP280;68312;53.502;10.030;2023-04-06T12:21:53;101983.97;;;19.54
77728;BMP280;68312;53.502;10.030;2023-04-06T12:24:19;101981.56;;;19.00
77728;BMP280;68312;53.502;10.030;2023-04-06T12:26:45;101985.66;;;18.98
77728;BMP280;68312;53.502;10.030;2023-04-06T12:29:11;101985.44;;;19.52
77728;BMP280;68312;53.502;10.030;2023-04-06T12:31:38;101984.22;;;19.00
77728;BMP280;68312;53.502;10.030;2023-04-06T12:34:06;101980.56;;;19.39
77728;BMP280;68312;53.502;10.030;2023-04-06T12:36:32;101981.31;;;19.54
77728;BMP280;68312;53.502;10.030;2023-04-06T12:38:58;101982.19;;;19.43
77728;BMP280;68312;53.502;10.030;2023-04-06T12:41:28;101976.13;;;19.12
77728;BMP280;68312;53.502;10.030;2023-04-06T12:43:55;101967.44;;;19.15
77728;BMP280;68312;53.502;10.030;2023-04-06T12:46:22;101967.66;;;19.41
77728;BMP280;68312;53.502;10.030;2023-04-06T12:48:48;101973.34;;;19.24
77728;BMP280;68312;53.502;10.030;2023-04-06T12:51:14;101985.50;;;19.22
77728;BMP280;68312;53.502;10.030;2023-04-06T12:53:40;101963.13;;;18.65
77728;BMP280;68312;53.502;10.030;2023-04-06T12:56:13;101960.72;;;19.21
77728;BMP280;68312;53.502;10.030;2023-04-06T12:58:42;101956.81;;;20.02
77728;BMP280;68312;53.502;10.030;2023-04-06T13:01:09;101960.53;;;19.97
77728;BMP280;68312;53.502;10.030;2023-04-06T13:03:38;101962.91;;;19.83
77728;BMP280;68312;53.502;10.030;2023-04-06T13:06:04;101955.16;;;19.26
77728;BMP280;68312;53.502;10.030;2023-04-06T13:08:30;101962.69;;;19.73
77728;BMP280;68312;53.502;10.030;2023-04-06T13:10:56;101948.66;;;20.13
77728;BMP280;68312;53.502;10.030;2023-04-06T13:13:26;101947.88;;;20.13
77728;BMP280;68312;53.502;10.030;2023-04-06T13:15:55;101951.66;;;19.75
77728;BMP280;68312;53.502;10.030;2023-04-06T13:18:30;101952.81;;;19.40
77728;BMP280;68312;53.502;10.030;2023-04-06T13:20:57;101944.63;;;19.67
77728;BMP280;68312;53.502;10.030;2023-04-06T13:23:25;101943.25;;;19.91
77728;BMP280;68312;53.502;10.030;2023-04-06T13:26:04;101945.09;;;19.53
77728;BMP280;68312;53.502;10.030;2023-04-06T13:28:34;101927.38;;;19.79
77728;BMP280;68312;53.502;10.030;2023-04-06T13:31:05;101932.78;;;19.83
77728;BMP280;68312;53.502;10.030;2023-04-06T13:33:31;101940.44;;;19.66
77728;BMP280;68312;53.502;10.030;2023-04-06T13:35:58;101931.41;;;19.89
77728;BMP280;68312;53.502;10.030;2023-04-06T13:38:24;101939.75;;;19.69
77728;BMP280;68312;53.502;10.030;2023-04-06T13:40:51;101921.16;;;19.91
77728;BMP280;68312;53.502;10.030;2023-04-06T13:43:17;101927.59;;;19.71
77728;BMP280;68312;53.502;10.030;2023-04-06T13:45:49;101921.59;;;19.59
77728;BMP280;68312;53.502;10.030;2023-04-06T13:48:17;101912.72;;;19.70
77728;BMP280;68312;53.502;10.030;2023-04-06T13:50:43;101910.22;;;19.77